Time;durP1;ratioP1;P1;durP2;ratioP2;P2;SDS_P1;SDS_P2;PMS_P1;PMS_P2;Temp;Humidity;BMP_temperature;BMP_pressure;BME280_temperature;BME280_humidity;BME280_pressure;Samples;Min_cycle;Max_cycle;Signal;HPM_P1;HPM_P2
2022/09/19 00:00:38;;;;;;;10.55;1.20;;;11.20;99.90;;;;;;5037255;28;20386;-36
2022/09/19 00:03:04;;;;;;;6.20;0.70;;;11.30;99.90;;;;;;5033031;28;20041;-37
2022/09/19 00:05:30;;;;;;;8.40;1.08;;;11.30;99.90;;;;;;5037953;28;21442;-36
2022/09/19 00:07:55;;;;;;;7.18;0.90;;;11.20;99.90;;;;;;5037559;28;20121;-37
2022/09/19 00:10:22;;;;;;;8.18;0.80;;;11.20;99.90;;;;;;5042563;28;20045;-36
2022/09/19 00:12:47;;;;;;;3.08;0.60;;;11.20;99.90;;;;;;5037756;28;20083;-36
2022/09/19 00:15:13;;;;;;;5.15;0.43;;;11.10;99.90;;;;;;5037562;28;20033;-36
2022/09/19 00:17:39;;;;;;;4.65;0.60;;;11.10;99.90;;;;;;5044446;28;20041;-35
2022/09/19 00:20:06;;;;;;;6.93;0.65;;;11.10;99.90;;;;;;5036509;28;20033;-35
2022/09/19 00:22:32;;;;;;;8.02;0.82;;;11.00;99.90;;;;;;5036625;28;20060;-36
2022/09/19 00:24:58;;;;;;;3.58;0.50;;;11.00;99.90;;;;;;5038614;28;20402;-37
2022/09/19 00:27:26;;;;;;;8.27;0.73;;;10.90;99.90;;;;;;5040176;28;20049;-36
2022/09/19 00:29:53;;;;;;;6.30;0.98;;;10.90;99.90;;;;;;5043503;28;20072;-36
2022/09/19 00:32:23;;;;;;;6.18;0.60;;;10.80;99.90;;;;;;5043799;28;20045;-37
2022/09/19 00:34:50;;;;;;;8.50;1.02;;;10.80;99.90;;;;;;5038076;28;20041;-36
2022/09/19 00:37:18;;;;;;;8.07;0.40;;;10.80;99.90;;;;;;5044987;28;20073;-36
2022/09/19 00:39:43;;;;;;;6.50;0.50;;;10.80;99.90;;;;;;5039252;28;20030;-36
2022/09/19 00:42:20;;;;;;;9.52;0.50;;;10.80;99.90;;;;;;5043016;28;20078;-35
2022/09/19 00:44:54;;;;;;;4.72;0.77;;;10.80;99.90;;;;;;5042790;28;20049;-36
2022/09/19 00:47:24;;;;;;;6.90;0.50;;;10.80;99.90;;;;;;5035251;28;20446;-37
2022/09/19 00:49:54;;;;;;;7.32;0.82;;;10.80;99.90;;;;;;5036576;28;20493;-37
2022/09/19 00:52:44;;;;;;;5.20;0.70;;;10.70;99.90;;;;;;5035582;28;20123;-37
2022/09/19 00:55:10;;;;;;;3.75;0.57;;;10.70;99.90;;;;;;5038743;28;20037;-39
2022/09/19 00:58:15;;;;;;;8.02;1.02;;;10.60;99.90;;;;;;5041863;28;20048;-38
2022/09/19 01:00:41;;;;;;;6.97;0.50;;;10.60;99.90;;;;;;5036512;28;20049;-38
2022/09/19 01:03:09;;;;;;;3.10;0.50;;;10.60;99.90;;;;;;5037981;28;20033;-38
2022/09/19 01:05:59;;;;;;;4.80;0.30;;;10.60;99.90;;;;;;5034777;28;20084;-37
2022/09/19 01:08:39;;;;;;;7.82;0.60;;;10.50;99.90;;;;;;5040974;28;20052;-38
2022/09/19 01:11:18;;;;;;;5.32;0.80;;;10.50;99.90;;;;;;5036998;28;20041;-38
2022/09/19 01:14:05;;;;;;;4.82;0.60;;;10.40;99.90;;;;;;5038277;28;20036;-39
2022/09/19 01:16:50;;;;;;;11.10;0.90;;;10.40;99.90;;;;;;5041256;28;20123;-38
2022/09/19 01:19:45;;;;;;;13.82;0.82;;;10.40;99.90;;;;;;5031888;28;20524;-38
2022/09/19 01:22:30;;;;;;;5.22;0.57;;;10.40;99.90;;;;;;5035769;28;20660;-39
2022/09/19 01:25:19;;;;;;;7.85;0.60;;;10.40;99.90;;;;;;5040521;28;20045;-38
2022/09/19 01:28:18;;;;;;;6.15;0.98;;;10.50;99.90;;;;;;5027990;28;20049;-38
2022/09/19 01:31:21;;;;;;;9.85;1.35;;;10.60;99.90;;;;;;5035651;28;20069;-36
2022/09/19 01:34:02;;;;;;;5.45;0.55;;;10.70;99.90;;;;;;5032575;28;20049;-38
2022/09/19 01:36:40;;;;;;;6.70;0.70;;;10.80;99.90;;;;;;5037593;28;20127;-38
2022/09/19 01:39:09;;;;;;;8.90;0.98;;;10.80;99.90;;;;;;5038816;28;20030;-39
2022/09/19 01:41:35;;;;;;;10.02;1.42;;;10.90;99.90;;;;;;5017183;28;20075;-39
2022/09/19 01:44:05;;;;;;;9.77;0.70;;;10.90;99.90;;;;;;5033089;28;20529;-38
2022/09/19 01:46:49;;;;;;;10.98;0.93;;;10.90;99.90;;;;;;5038032;28;20045;-35
2022/09/19 01:49:41;;;;;;;4.85;0.60;;;10.90;99.90;;;;;;5040287;28;22185;-35
2022/09/19 01:52:22;;;;;;;7.07;0.60;;;10.90;99.90;;;;;;5035005;28;20056;-35
2022/09/19 01:54:56;;;;;;;6.13;0.55;;;10.90;99.90;;;;;;5036068;28;20033;-35
2022/09/19 01:57:54;;;;;;;6.82;0.98;;;10.80;99.90;;;;;;5034694;28;20497;-35
2022/09/19 02:00:24;;;;;;;6.95;0.68;;;10.80;99.90;;;;;;5031712;28;20048;-36
2022/09/19 02:03:04;;;;;;;8.00;0.93;;;10.70;99.90;;;;;;5035942;28;20029;-35
2022/09/19 02:05:50;;;;;;;5.38;1.02;;;10.60;99.90;;;;;;5022692;28;20045;-36
2022/09/19 02:08:29;;;;;;;8.98;0.65;;;10.60;99.90;;;;;;5035785;28;20073;-35
2022/09/19 02:11:00;;;;;;;3.40;0.57;;;10.60;99.90;;;;;;5036731;28;20038;-35
2022/09/19 02:13:31;;;;;;;6.25;0.70;;;10.60;99.90;;;;;;5038184;28;20025;-36
2022/09/19 02:16:09;;;;;;;5.90;0.70;;;10.50;99.90;;;;;;5046403;28;20116;-36
2022/09/19 02:18:38;;;;;;;7.20;0.70;;;10.60;99.90;;;;;;5033691;28;20103;-35
2022/09/19 02:21:11;;;;;;;3.55;0.50;;;10.50;99.90;;;;;;5037835;28;20055;-35
2022/09/19 02:23:47;;;;;;;5.93;0.95;;;10.50;99.90;;;;;;5043074;28;20425;-35
2022/09/19 02:26:20;;;;;;;6.57;0.50;;;10.50;99.90;;;;;;5034606;28;20041;-35
2022/09/19 02:28:52;;;;;;;9.05;0.75;;;10.50;99.90;;;;;;5037218;28;20475;-35
2022/09/19 02:31:19;;;;;;;8.02;0.75;;;10.50;99.90;;;;;;5034552;28;20041;-35
2022/09/19 02:33:47;;;;;;;7.07;0.68;;;10.60;99.90;;;;;;5039748;28;20129;-36
2022/09/19 02:36:32;;;;;;;7.25;1.13;;;10.60;99.90;;;;;;5026971;28;20052;-36
2022/09/19 02:39:19;;;;;;;9.98;0.85;;;10.60;99.90;;;;;;5035618;28;20091;-37
2022/09/19 02:41:56;;;;;;;9.13;0.82;;;10.60;99.90;;;;;;5029168;28;20575;-36
2022/09/19 02:44:52;;;;;;;4.38;0.65;;;10.70;99.90;;;;;;5033508;28;20041;-36
2022/09/19 02:47:33;;;;;;;5.78;0.80;;;10.60;99.90;;;;;;5033921;28;20067;-35
2022/09/19 02:50:12;;;;;;;9.65;1.27;;;10.60;99.90;;;;;;5034032;28;20505;-36
2022/09/19 02:52:39;;;;;;;5.30;1.20;;;10.70;99.90;;;;;;5042872;28;20036;-34
2022/09/19 02:55:17;;;;;;;7.90;0.70;;;10.60;99.90;;;;;;5031197;28;20053;-35
2022/09/19 02:57:47;;;;;;;8.75;0.60;;;10.60;99.90;;;;;;5037713;28;20041;-36
2022/09/19 03:00:14;;;;;;;8.15;0.60;;;10.60;99.90;;;;;;5029514;28;20485;-35
2022/09/19 03:02:54;;;;;;;7.47;0.80;;;10.60;99.90;;;;;;5038242;28;20048;-35
2022/09/19 03:05:20;;;;;;;8.38;0.65;;;10.60;99.90;;;;;;5032935;28;20049;-35
2022/09/19 03:07:52;;;;;;;7.00;0.60;;;10.60;99.90;;;;;;5038091;28;20108;-35
2022/09/19 03:10:24;;;;;;;11.73;1.73;;;10.50;99.90;;;;;;5016670;28;20060;-35
2022/09/19 03:12:54;;;;;;;10.10;0.85;;;10.50;99.90;;;;;;5031395;28;20107;-35
2022/09/19 03:15:35;;;;;;;8.15;0.98;;;10.50;99.90;;;;;;5041378;28;20041;-35
2022/09/19 03:18:01;;;;;;;5.97;0.95;;;10.50;99.90;;;;;;5034237;28;20040;-36
2022/09/19 03:20:27;;;;;;;4.47;0.57;;;10.50;99.90;;;;;;5033778;28;20617;-34
2022/09/19 03:22:53;;;;;;;2.90;0.63;;;10.40;99.90;;;;;;5034879;28;20050;-35
2022/09/19 03:25:19;;;;;;;3.70;0.65;;;10.40;99.90;;;;;;5039928;28;20538;-35
2022/09/19 03:27:45;;;;;;;8.15;0.85;;;10.40;99.90;;;;;;5041774;28;20029;-35
2022/09/19 03:30:13;;;;;;;7.30;1.15;;;10.40;99.90;;;;;;5033809;28;20029;-36
2022/09/19 03:32:41;;;;;;;5.30;0.70;;;10.40;99.90;;;;;;5037356;28;20040;-36
2022/09/19 03:35:08;;;;;;;8.38;1.30;;;10.30;99.90;;;;;;5037557;28;20037;-36
2022/09/19 03:37:34;;;;;;;7.28;1.00;;;10.30;99.90;;;;;;5032062;28;20073;-35
2022/09/19 03:40:01;;;;;;;8.10;0.80;;;10.30;99.90;;;;;;5039455;28;20068;-35
2022/09/19 03:42:27;;;;;;;5.22;0.90;;;10.30;99.90;;;;;;5035343;28;20060;-35
2022/09/19 03:44:54;;;;;;;12.27;1.15;;;10.20;99.90;;;;;;5025769;28;20073;-35
2022/09/19 03:47:21;;;;;;;5.55;0.88;;;10.20;99.90;;;;;;5035696;28;20045;-35
2022/09/19 03:49:50;;;;;;;6.97;0.68;;;10.20;99.90;;;;;;5035835;28;20067;-34
2022/09/19 03:52:17;;;;;;;11.55;0.80;;;10.20;99.90;;;;;;5031490;28;20038;-36
2022/09/19 03:54:44;;;;;;;7.45;0.75;;;10.20;99.90;;;;;;5032965;28;20040;-35
2022/09/19 03:57:11;;;;;;;12.35;0.60;;;10.20;99.90;;;;;;5043412;28;20052;-36
2022/09/19 03:59:39;;;;;;;6.00;0.65;;;10.20;99.90;;;;;;5041263;28;20037;-36
2022/09/19 04:02:06;;;;;;;8.13;0.77;;;10.10;99.90;;;;;;5042441;28;20041;-36
2022/09/19 04:04:32;;;;;;;15.48;1.45;;;10.20;99.90;;;;;;5036600;28;20036;-35
2022/09/19 04:06:58;;;;;;;7.63;0.73;;;10.20;99.90;;;;;;5036131;28;22378;-35
2022/09/19 04:09:25;;;;;;;3.78;0.50;;;10.20;99.90;;;;;;5036710;28;20037;-35
2022/09/19 04:11:52;;;;;;;5.60;0.65;;;10.10;99.90;;;;;;5040460;28;20045;-35
2022/09/19 04:14:18;;;;;;;8.35;0.93;;;10.20;99.90;;;;;;5041072;28;20120;-35
2022/09/19 04:16:44;;;;;;;12.55;1.05;;;10.10;99.90;;;;;;5045998;28;20183;-36
2022/09/19 04:19:12;;;;;;;8.90;0.65;;;10.20;99.90;;;;;;5037915;28;20522;-35
2022/09/19 04:21:41;;;;;;;8.27;0.90;;;10.20;99.90;;;;;;5036365;28;20052;-35
2022/09/19 04:24:08;;;;;;;9.30;1.25;;;10.20;99.90;;;;;;5040543;28;20411;-35
2022/09/19 04:26:34;;;;;;;7.28;0.60;;;10.30;99.90;;;;;;5039480;28;20045;-36
2022/09/19 04:29:02;;;;;;;6.30;0.75;;;10.30;99.90;;;;;;5041616;28;20036;-35
2022/09/19 04:31:35;;;;;;;13.55;1.08;;;10.30;99.90;;;;;;5040098;28;20033;-34
2022/09/19 04:34:02;;;;;;;5.85;0.63;;;10.30;99.90;;;;;;5034098;28;20120;-35
2022/09/19 04:36:31;;;;;;;4.40;0.50;;;10.30;99.90;;;;;;5038546;28;20596;-36
2022/09/19 04:39:02;;;;;;;8.70;0.82;;;10.30;99.90;;;;;;5038424;28;20057;-34
2022/09/19 04:41:32;;;;;;;3.83;0.55;;;10.30;99.90;;;;;;5037194;28;20184;-36
2022/09/19 04:43:58;;;;;;;10.90;1.88;;;10.30;99.90;;;;;;5043299;28;20502;-35
2022/09/19 04:46:24;;;;;;;9.57;0.63;;;10.30;99.90;;;;;;5035951;28;21711;-36
2022/09/19 04:48:51;;;;;;;7.45;0.63;;;10.30;99.90;;;;;;5037704;28;20042;-36
2022/09/19 04:51:17;;;;;;;5.18;0.63;;;10.20;99.90;;;;;;5042877;28;20041;-35
2022/09/19 04:53:43;;;;;;;7.30;0.70;;;10.20;99.90;;;;;;5036799;28;20501;-36
2022/09/19 04:56:10;;;;;;;6.90;1.08;;;10.20;99.90;;;;;;5041365;28;20456;-35
2022/09/19 04:58:37;;;;;;;5.28;0.60;;;10.10;99.90;;;;;;5041867;28;20128;-35
2022/09/19 05:01:03;;;;;;;5.80;0.40;;;10.10;99.90;;;;;;5040967;28;20041;-35
2022/09/19 05:03:30;;;;;;;4.47;0.50;;;10.10;99.90;;;;;;5040703;28;20045;-34
2022/09/19 05:05:58;;;;;;;6.97;0.63;;;10.10;99.90;;;;;;5038664;28;20117;-35
2022/09/19 05:08:26;;;;;;;7.07;0.68;;;10.10;99.90;;;;;;5039396;28;20483;-36
2022/09/19 05:10:56;;;;;;;8.40;1.10;;;10.10;99.90;;;;;;5037209;28;20100;-35
2022/09/19 05:13:23;;;;;;;3.05;0.52;;;10.00;99.90;;;;;;5039007;28;20172;-44
2022/09/19 05:15:51;;;;;;;4.10;0.50;;;10.00;99.90;;;;;;5021812;28;20136;-36
2022/09/19 05:18:19;;;;;;;7.32;0.90;;;10.10;99.90;;;;;;5031674;28;20041;-36
2022/09/19 05:20:44;;;;;;;8.60;1.50;;;10.00;99.90;;;;;;5036670;28;20056;-36
2022/09/19 05:23:10;;;;;;;2.75;0.50;;;10.00;99.90;;;;;;5041354;28;20056;-36
2022/09/19 05:25:38;;;;;;;8.38;0.70;;;10.00;99.90;;;;;;5041224;28;20041;-35
2022/09/19 05:28:06;;;;;;;6.97;0.90;;;10.00;99.90;;;;;;5038205;28;20632;-36
2022/09/19 05:30:38;;;;;;;8.95;0.85;;;10.00;99.90;;;;;;5031990;28;20483;-35
2022/09/19 05:33:05;;;;;;;5.20;0.40;;;10.00;99.90;;;;;;5040292;28;20037;-36
2022/09/19 05:35:31;;;;;;;5.90;0.63;;;10.00;99.90;;;;;;5036908;28;20029;-35
2022/09/19 05:37:57;;;;;;;5.40;0.50;;;10.00;99.90;;;;;;5034050;28;20271;-35
2022/09/19 05:40:25;;;;;;;6.07;0.70;;;10.00;99.90;;;;;;5040551;28;20037;-36
2022/09/19 05:42:51;;;;;;;9.20;0.60;;;10.00;99.90;;;;;;5035631;28;20502;-36
2022/09/19 05:45:18;;;;;;;8.57;0.80;;;10.00;99.90;;;;;;5030871;28;20402;-36
2022/09/19 05:47:43;;;;;;;9.55;0.60;;;10.10;99.90;;;;;;5043249;28;20034;-35
2022/09/19 05:50:16;;;;;;;3.85;0.47;;;10.10;99.90;;;;;;5031286;28;20044;-38
2022/09/19 05:55:28;;;;;;;6.53;0.70;;;10.10;99.90;;;;;;5031941;28;19921;-37
2022/09/19 05:57:55;;;;;;;7.18;1.02;;;10.20;99.90;;;;;;5037163;28;20083;-38
2022/09/19 06:00:23;;;;;;;6.10;0.45;;;10.20;99.90;;;;;;5034756;28;20715;-37
2022/09/19 06:02:54;;;;;;;4.35;0.70;;;10.20;99.90;;;;;;5035269;28;20032;-36
2022/09/19 06:05:20;;;;;;;5.82;0.68;;;10.20;99.90;;;;;;5039946;28;20506;-36
2022/09/19 06:07:47;;;;;;;3.05;0.40;;;10.30;99.90;;;;;;5030778;28;20037;-38
2022/09/19 06:10:13;;;;;;;5.82;0.75;;;10.30;99.90;;;;;;5040587;28;20166;-38
2022/09/19 06:12:39;;;;;;;3.90;0.70;;;10.30;99.90;;;;;;5039007;28;20145;-35
2022/09/19 06:15:05;;;;;;;6.38;0.63;;;10.40;99.90;;;;;;5035508;28;20036;-37
2022/09/19 06:17:30;;;;;;;9.25;0.50;;;10.40;99.90;;;;;;5037231;28;20544;-37
2022/09/19 06:19:56;;;;;;;5.60;0.75;;;10.50;99.90;;;;;;5033079;28;20065;-36
2022/09/19 06:22:22;;;;;;;7.72;0.80;;;10.60;99.90;;;;;;5019988;28;20049;-36
2022/09/19 06:24:47;;;;;;;9.35;0.57;;;10.60;99.90;;;;;;5036286;28;20112;-39
2022/09/19 06:27:13;;;;;;;5.85;0.40;;;10.70;99.90;;;;;;5037777;28;20036;-40
2022/09/19 06:29:39;;;;;;;9.63;1.08;;;10.80;99.90;;;;;;5039797;28;20025;-36
2022/09/19 06:32:05;;;;;;;6.10;0.65;;;10.80;99.90;;;;;;5040134;28;20032;-38
2022/09/19 06:34:30;;;;;;;5.60;0.70;;;10.90;99.90;;;;;;5022081;28;20410;-38
2022/09/19 06:36:56;;;;;;;6.22;0.60;;;10.90;99.90;;;;;;5043902;28;20494;-37
2022/09/19 06:39:22;;;;;;;5.90;0.43;;;11.00;99.90;;;;;;5031810;28;20045;-38
2022/09/19 06:41:47;;;;;;;7.03;0.52;;;11.00;99.90;;;;;;5032731;28;20049;-38
2022/09/19 06:44:14;;;;;;;8.48;0.95;;;11.10;99.90;;;;;;5033665;28;20402;-39
2022/09/19 06:46:40;;;;;;;5.03;0.47;;;11.20;99.90;;;;;;5019031;28;20034;-37
2022/09/19 06:49:07;;;;;;;4.25;0.50;;;11.20;99.90;;;;;;5032354;28;20106;-37
2022/09/19 06:51:34;;;;;;;6.30;0.95;;;11.30;99.90;;;;;;5033559;28;20383;-38
2022/09/19 06:54:00;;;;;;;10.20;0.95;;;11.40;99.90;;;;;;5033825;28;20056;-37
2022/09/19 06:56:26;;;;;;;6.15;0.70;;;11.40;99.90;;;;;;5029927;28;20036;-37
2022/09/19 06:58:52;;;;;;;8.32;1.20;;;11.50;99.90;;;;;;5037485;28;20529;-38
2022/09/19 07:01:18;;;;;;;6.55;0.80;;;11.60;99.90;;;;;;5034104;28;20224;-39
2022/09/19 07:03:43;;;;;;;5.63;0.50;;;11.60;99.90;;;;;;5034267;28;20040;-37
2022/09/19 07:06:09;;;;;;;10.07;1.25;;;11.70;99.90;;;;;;5036964;28;20136;-39
2022/09/19 07:08:35;;;;;;;6.30;0.70;;;11.80;99.90;;;;;;5022661;28;20048;-37
2022/09/19 07:11:01;;;;;;;6.25;0.60;;;11.80;99.90;;;;;;5042335;28;20143;-38
2022/09/19 07:13:28;;;;;;;10.27;1.63;;;11.90;99.90;;;;;;5035755;28;20487;-38
2022/09/19 07:15:56;;;;;;;5.85;0.80;;;11.90;99.90;;;;;;5037854;28;20049;-40
2022/09/19 07:18:23;;;;;;;6.18;0.65;;;12.00;99.90;;;;;;5038814;28;20124;-38
2022/09/19 07:20:49;;;;;;;6.78;0.65;;;12.10;99.90;;;;;;5033325;28;20053;-38
2022/09/19 07:23:17;;;;;;;7.63;0.52;;;12.20;99.90;;;;;;5031724;28;20053;-38
2022/09/19 07:25:43;;;;;;;8.25;1.20;;;12.30;99.90;;;;;;5032215;28;20042;-36
2022/09/19 07:28:12;;;;;;;5.28;0.45;;;12.40;99.90;;;;;;5034700;28;20654;-36
2022/09/19 07:30:39;;;;;;;4.88;1.35;;;12.40;99.90;;;;;;5036178;28;20502;-36
2022/09/19 07:33:07;;;;;;;8.98;0.60;;;12.50;99.90;;;;;;5033927;28;20581;-37
2022/09/19 07:35:37;;;;;;;3.58;0.40;;;12.60;99.90;;;;;;5036801;28;20086;-36
2022/09/19 07:38:04;;;;;;;4.80;0.50;;;12.70;99.90;;;;;;5034111;28;20149;-37
2022/09/19 07:40:33;;;;;;;3.55;0.50;;;12.70;99.90;;;;;;5028739;28;20129;-38
2022/09/19 07:43:02;;;;;;;5.07;0.63;;;12.80;99.90;;;;;;5033525;28;20684;-36
2022/09/19 07:45:29;;;;;;;6.80;0.88;;;13.00;99.90;;;;;;5035407;28;20045;-36
2022/09/19 07:47:57;;;;;;;7.97;0.60;;;13.10;99.90;;;;;;5035899;28;20137;-36
2022/09/19 07:50:23;;;;;;;4.50;0.40;;;13.20;99.90;;;;;;5037351;28;20483;-37
2022/09/19 07:53:02;;;;;;;9.20;0.68;;;13.20;99.90;;;;;;5036767;28;20040;-36
2022/09/19 07:55:28;;;;;;;3.70;0.60;;;13.30;99.90;;;;;;5022953;28;20128;-38
2022/09/19 07:57:56;;;;;;;5.25;0.50;;;13.30;99.90;;;;;;5037957;28;20037;-36
2022/09/19 08:00:24;;;;;;;4.18;0.60;;;13.40;99.90;;;;;;5040282;28;20041;-37
2022/09/19 08:02:57;;;;;;;4.03;0.82;;;13.50;99.90;;;;;;5035139;28;20037;-36
2022/09/19 08:05:23;;;;;;;5.57;0.40;;;13.60;99.90;;;;;;5032057;28;20043;-36
2022/09/19 08:07:49;;;;;;;6.07;0.63;;;13.60;99.90;;;;;;5046626;28;20041;-36
2022/09/19 08:10:15;;;;;;;8.10;0.77;;;13.70;99.90;;;;;;5037188;28;20462;-36
2022/09/19 08:12:45;;;;;;;5.47;0.40;;;13.80;99.90;;;;;;5034213;28;20043;-37
2022/09/19 08:15:15;;;;;;;8.98;0.85;;;13.80;99.90;;;;;;5037978;28;20034;-36
2022/09/19 08:18:01;;;;;;;4.25;0.65;;;13.90;99.90;;;;;;5043375;28;20034;-36
2022/09/19 08:20:31;;;;;;;4.82;0.40;;;14.00;99.90;;;;;;5033168;28;20059;-36
2022/09/19 08:23:12;;;;;;;5.05;0.90;;;14.10;99.90;;;;;;5039507;28;20057;-35
2022/09/19 08:25:41;;;;;;;5.97;0.93;;;14.20;99.90;;;;;;5038243;28;20525;-36
2022/09/19 08:28:07;;;;;;;3.85;0.50;;;14.20;99.90;;;;;;5035631;28;20718;-37
2022/09/19 08:30:33;;;;;;;4.55;0.47;;;14.30;99.90;;;;;;5037684;28;20036;-37
2022/09/19 08:33:00;;;;;;;3.58;0.60;;;14.40;99.90;;;;;;5032965;28;20037;-37
2022/09/19 08:35:27;;;;;;;5.85;0.93;;;14.50;99.90;;;;;;5033730;28;20068;-37
2022/09/19 08:38:03;;;;;;;9.55;0.70;;;14.50;99.90;;;;;;5036160;28;20049;-36
2022/09/19 08:40:34;;;;;;;5.95;0.70;;;14.60;99.90;;;;;;5036060;28;20588;-36
2022/09/19 08:43:11;;;;;;;7.57;0.60;;;14.70;99.90;;;;;;5037290;28;20048;-37
2022/09/19 08:46:03;;;;;;;6.38;0.60;;;14.80;99.40;;;;;;5036347;28;20407;-36
2022/09/19 08:48:37;;;;;;;6.07;0.70;;;14.90;99.90;;;;;;5038034;28;20079;-36
2022/09/19 08:51:23;;;;;;;7.80;0.60;;;14.90;99.90;;;;;;5043011;28;20036;-36
2022/09/19 08:53:54;;;;;;;9.07;1.13;;;14.90;99.90;;;;;;5040357;28;20067;-36
2022/09/19 08:56:21;;;;;;;5.03;0.70;;;15.00;99.90;;;;;;5033660;28;20049;-36
2022/09/19 08:58:59;;;;;;;4.85;0.60;;;15.00;99.90;;;;;;5034881;28;20107;-36
2022/09/19 09:01:28;;;;;;;5.88;0.50;;;15.10;99.90;;;;;;5035502;28;20045;-35
2022/09/19 09:04:07;;;;;;;6.65;0.70;;;15.10;99.90;;;;;;5006330;28;20036;-36
2022/09/19 09:06:50;;;;;;;5.57;0.80;;;15.20;99.90;;;;;;5036175;28;20079;-36
2022/09/19 09:09:45;;;;;;;5.93;0.70;;;15.30;99.90;;;;;;5037430;28;20064;-36
2022/09/19 09:12:31;;;;;;;5.72;0.52;;;15.30;99.90;;;;;;5032572;28;20029;-36
2022/09/19 09:15:16;;;;;;;5.57;1.15;;;15.40;99.90;;;;;;5037119;28;20068;-37
2022/09/19 09:17:47;;;;;;;8.30;0.88;;;15.50;99.90;;;;;;5033348;28;20544;-36
2022/09/19 09:20:39;;;;;;;7.13;0.77;;;15.60;99.90;;;;;;5038581;28;20136;-37
2022/09/19 09:23:09;;;;;;;11.77;0.80;;;15.70;99.90;;;;;;5041184;28;20053;-37
2022/09/19 09:25:38;;;;;;;8.00;0.90;;;15.70;99.50;;;;;;5029591;28;20520;-36
2022/09/19 09:28:21;;;;;;;4.43;0.60;;;15.80;99.50;;;;;;5028742;28;20064;-36
2022/09/19 09:30:49;;;;;;;4.45;0.50;;;15.90;97.30;;;;;;5035420;28;20048;-37
2022/09/19 09:33:33;;;;;;;7.75;0.52;;;15.90;99.10;;;;;;5033536;28;20029;-35
2022/09/19 09:36:11;;;;;;;6.82;0.65;;;16.10;99.10;;;;;;5037784;28;20399;-36
2022/09/19 09:38:49;;;;;;;8.07;0.93;;;16.20;98.60;;;;;;5029430;28;20055;-36
2022/09/19 09:41:52;;;;;;;5.40;0.68;;;16.40;97.70;;;;;;5032548;28;20059;-36
2022/09/19 09:45:05;;;;;;;4.32;0.50;;;16.50;95.50;;;;;;5025508;28;20073;-36
2022/09/19 09:48:06;;;;;;;6.80;1.05;;;16.60;95.20;;;;;;5016419;28;20056;-36
2022/09/19 09:50:39;;;;;;;8.80;0.70;;;16.70;95.20;;;;;;5018787;28;20045;-36
2022/09/19 09:53:43;;;;;;;4.90;0.80;;;16.60;95.30;;;;;;5032414;28;20041;-36
2022/09/19 09:56:22;;;;;;;5.15;0.57;;;16.70;95.10;;;;;;5031020;28;20136;-36
2022/09/19 09:58:57;;;;;;;7.30;0.75;;;16.70;95.60;;;;;;5029301;28;20507;-36
2022/09/19 10:04:40;;;;;;;6.80;0.90;;;16.30;94.50;;;;;;5030931;28;20621;-37
2022/09/19 10:07:33;;;;;;;3.05;0.40;;;15.60;95.60;;;;;;5036924;28;20037;-36
2022/09/19 10:10:03;;;;;;;2.15;0.30;;;15.00;95.60;;;;;;5042762;28;20056;-35
2022/09/19 10:12:40;;;;;;;2.38;0.30;;;14.60;97.10;;;;;;5036212;28;20067;-36
2022/09/19 10:15:13;;;;;;;3.50;0.40;;;14.40;98.30;;;;;;5043945;28;20115;-36
2022/09/19 10:17:45;;;;;;;4.25;0.55;;;14.30;99.30;;;;;;5036442;28;20029;-37
2022/09/19 10:20:23;;;;;;;2.50;0.40;;;14.40;99.90;;;;;;5037318;28;20479;-37
2022/09/19 10:22:49;;;;;;;7.80;0.70;;;14.50;99.90;;;;;;5015827;28;20049;-36
2022/09/19 10:25:16;;;;;;;4.72;0.50;;;14.50;99.90;;;;;;5036547;28;20405;-36
2022/09/19 10:27:45;;;;;;;4.38;0.40;;;14.40;99.90;;;;;;5034157;28;20453;-37
2022/09/19 10:30:27;;;;;;;4.05;0.80;;;14.20;99.90;;;;;;5034531;28;20046;-35
2022/09/19 10:32:54;;;;;;;9.07;0.63;;;14.00;99.90;;;;;;5035542;28;20059;-36
2022/09/19 10:35:51;;;;;;;4.35;0.45;;;14.00;99.90;;;;;;5029566;28;20045;-36
2022/09/19 10:38:18;;;;;;;2.83;0.40;;;14.00;99.90;;;;;;5031884;28;20521;-36
2022/09/19 10:40:58;;;;;;;2.63;0.40;;;14.10;99.90;;;;;;5037740;28;20088;-36
2022/09/19 10:43:43;;;;;;;7.18;0.60;;;14.30;99.90;;;;;;5034103;28;20045;-36
2022/09/19 10:46:20;;;;;;;4.07;0.55;;;14.50;99.90;;;;;;5036669;28;20052;-37
2022/09/19 10:48:57;;;;;;;10.25;1.17;;;14.80;99.90;;;;;;5034498;28;20045;-36
2022/09/19 10:51:45;;;;;;;7.32;0.68;;;14.80;99.90;;;;;;5036235;28;20063;-36
2022/09/19 10:54:32;;;;;;;5.55;0.75;;;14.70;99.90;;;;;;5012886;28;20710;-37
2022/09/19 10:57:01;;;;;;;3.60;0.47;;;14.50;99.90;;;;;;5035861;28;20481;-37
2022/09/19 10:59:35;;;;;;;5.38;0.52;;;14.40;99.90;;;;;;5030660;28;20045;-37
2022/09/19 11:02:27;;;;;;;3.40;0.57;;;14.60;99.90;;;;;;5034790;28;20029;-36
2022/09/19 11:05:02;;;;;;;6.72;0.60;;;14.80;99.90;;;;;;5032466;28;20123;-37
2022/09/19 11:07:41;;;;;;;2.53;0.38;;;14.80;99.90;;;;;;5037036;28;20049;-36
2022/09/19 11:10:38;;;;;;;3.28;0.50;;;14.60;99.90;;;;;;5035160;28;20410;-36
2022/09/19 11:13:20;;;;;;;3.47;0.45;;;14.30;99.90;;;;;;5033550;28;20099;-37
2022/09/19 11:15:57;;;;;;;;;;;14.20;99.90;;;;;;5036640;28;20511;-36
2022/09/19 11:18:51;;;;;;;3.70;0.32;;;14.10;99.90;;;;;;5041226;28;19974;-36
2022/09/19 11:21:29;;;;;;;4.63;0.40;;;14.20;99.90;;;;;;5037249;28;20052;-37
2022/09/19 11:24:18;;;;;;;2.92;0.30;;;14.30;99.90;;;;;;5024653;28;20052;-36
2022/09/19 11:26:59;;;;;;;5.60;0.38;;;14.50;99.90;;;;;;5040151;28;20048;-36
2022/09/19 11:29:37;;;;;;;3.58;0.30;;;14.60;99.90;;;;;;5022443;28;20048;-36
2022/09/19 11:32:32;;;;;;;2.40;0.32;;;14.80;99.90;;;;;;5042065;28;20044;-36
2022/09/19 11:35:26;;;;;;;3.20;0.30;;;15.00;99.90;;;;;;5040301;28;20041;-36
2022/09/19 11:38:15;;;;;;;5.45;0.38;;;15.20;99.90;;;;;;5039562;28;20498;-37
2022/09/19 11:41:12;;;;;;;5.55;0.60;;;15.20;99.90;;;;;;5038251;28;20043;-37
2022/09/19 11:44:08;;;;;;;4.40;0.52;;;14.80;99.90;;;;;;5036938;28;20173;-37
2022/09/19 11:46:55;;;;;;;4.75;0.43;;;14.50;99.90;;;;;;5035761;28;20065;-37
2022/09/19 11:49:31;;;;;;;2.88;0.60;;;14.20;99.90;;;;;;5037453;28;20120;-38
2022/09/19 11:52:33;;;;;;;2.15;0.40;;;14.10;99.90;;;;;;5034883;28;20052;-37
2022/09/19 11:55:27;;;;;;;2.58;0.38;;;13.90;99.90;;;;;;5023943;28;20068;-37
2022/09/19 11:57:59;;;;;;;2.38;0.30;;;13.80;99.90;;;;;;5041520;28;20128;-36
2022/09/19 12:00:25;;;;;;;5.65;0.60;;;13.90;99.90;;;;;;5035280;28;20578;-36
2022/09/19 12:03:28;;;;;;;3.30;0.40;;;14.20;99.90;;;;;;5035562;28;20059;-36
2022/09/19 12:06:12;;;;;;;4.13;0.35;;;14.60;99.90;;;;;;5036628;28;20049;-37
2022/09/19 12:09:15;;;;;;;3.22;0.50;;;14.90;99.90;;;;;;5036268;28;20112;-37
2022/09/19 12:11:44;;;;;;;3.93;0.60;;;15.20;99.90;;;;;;5037148;28;20038;-37
2022/09/19 12:14:19;;;;;;;5.70;0.60;;;15.50;99.90;;;;;;5035509;28;20046;-37
2022/09/19 12:16:50;;;;;;;3.78;0.55;;;15.80;99.90;;;;;;5033890;28;20131;-37
2022/09/19 12:19:34;;;;;;;4.53;0.60;;;16.10;99.90;;;;;;5038897;28;20044;-37
2022/09/19 12:22:11;;;;;;;4.72;0.70;;;16.50;99.90;;;;;;5038171;28;20136;-36
2022/09/19 12:24:52;;;;;;;6.45;1.40;;;16.50;99.90;;;;;;5043423;28;20076;-36
2022/09/19 12:27:47;;;;;;;9.18;0.90;;;16.30;99.90;;;;;;5036217;28;20438;-38
2022/09/19 12:30:22;;;;;;;6.63;0.60;;;16.00;99.90;;;;;;5041428;28;20033;-37
2022/09/19 12:33:04;;;;;;;6.70;0.50;;;15.90;99.90;;;;;;5040248;28;20041;-38
2022/09/19 12:35:38;;;;;;;6.00;0.65;;;16.00;99.90;;;;;;5037080;28;20091;-36
2022/09/19 12:38:16;;;;;;;6.82;0.70;;;16.50;99.90;;;;;;5035756;28;21031;-37
2022/09/19 12:40:48;;;;;;;7.00;0.70;;;17.30;99.40;;;;;;5033570;28;20049;-37
2022/09/19 12:43:38;;;;;;;5.53;0.60;;;18.00;97.00;;;;;;5031836;28;20120;-37
2022/09/19 12:46:27;;;;;;;7.53;0.47;;;18.60;95.50;;;;;;5031915;28;20539;-35
2022/09/19 12:49:19;;;;;;;3.65;0.50;;;19.20;93.30;;;;;;5031719;28;20508;-36
2022/09/19 12:52:04;;;;;;;2.63;0.47;;;19.30;91.80;;;;;;5003425;28;20802;-38
2022/09/19 12:54:54;;;;;;;3.03;0.45;;;19.70;91.90;;;;;;5034381;28;20049;-37
2022/09/19 12:57:50;;;;;;;3.92;0.70;;;20.20;83.30;;;;;;5035688;28;20066;-36
2022/09/19 13:00:18;;;;;;;4.72;0.68;;;20.00;77.40;;;;;;5032690;28;20061;-38
2022/09/19 13:03:25;;;;;;;4.50;0.80;;;19.80;82.50;;;;;;5032073;28;20110;-37
2022/09/19 13:06:00;;;;;;;3.50;0.35;;;19.70;76.00;;;;;;5034250;28;20164;-38
2022/09/19 13:08:34;;;;;;;6.50;0.70;;;19.80;77.60;;;;;;5035856;28;20037;-37
2022/09/19 13:11:00;;;;;;;4.78;0.50;;;20.30;75.90;;;;;;5040781;28;20120;-37
2022/09/19 13:13:53;;;;;;;6.72;0.70;;;20.70;74.20;;;;;;5041051;28;20123;-36
2022/09/19 13:16:28;;;;;;;5.28;0.82;;;20.10;72.50;;;;;;5033958;28;20053;-38
2022/09/19 13:24:56;;;;;;;6.22;0.90;;;18.10;81.40;;;;;;5029153;28;20093;-38
2022/09/19 13:27:25;;;;;;;3.42;0.60;;;17.60;83.50;;;;;;5032968;28;20469;-37
2022/09/19 13:29:53;;;;;;;5.13;0.50;;;17.40;87.20;;;;;;5036790;28;20131;-37
2022/09/19 13:32:27;;;;;;;6.47;0.52;;;17.40;88.40;;;;;;5034036;28;20033;-37